createdAt,value
2023-04-17T00:00:23.802Z,11.03
2023-04-17T00:02:58.122Z,11.04
2023-04-17T00:05:28.238Z,11.04
2023-04-17T00:08:00.574Z,11.04
2023-04-17T00:10:29.294Z,11.05
2023-04-17T00:12:58.077Z,11.04
2023-04-17T00:15:26.986Z,11.05
2023-04-17T00:17:58.913Z,11.05
2023-04-17T00:20:30.149Z,11.05
2023-04-17T00:23:02.100Z,11.05
2023-04-17T00:25:31.236Z,11.04
2023-04-17T00:27:59.916Z,11.04
2023-04-17T00:30:28.740Z,11.04
2023-04-17T00:32:58.780Z,11.03
2023-04-17T00:35:28.803Z,11.04
2023-04-17T00:37:57.577Z,11.02
2023-04-17T00:40:28.132Z,11.02
2023-04-17T00:43:05.368Z,11.02
2023-04-17T00:45:36.492Z,11.02
2023-04-17T00:48:06.914Z,11.02
2023-04-17T00:50:37.023Z,11.01
2023-04-17T00:53:06.703Z,11.00
2023-04-17T00:55:40.814Z,11.01
2023-04-17T00:58:13.223Z,11.01
2023-04-17T01:00:43.011Z,11.01
2023-04-17T01:03:12.419Z,11.00
2023-04-17T01:05:43.405Z,11.00
2023-04-17T01:08:13.279Z,10.99
2023-04-17T01:10:43.383Z,10.99
2023-04-17T01:13:15.001Z,10.98
2023-04-17T01:15:47.284Z,10.98
2023-04-17T01:18:17.246Z,10.98
2023-04-17T01:20:46.129Z,10.98
2023-04-17T01:23:16.263Z,10.97
2023-04-17T01:25:47.499Z,10.98
2023-04-17T01:28:16.554Z,10.97
2023-04-17T01:30:46.655Z,10.97
2023-04-17T01:33:15.784Z,10.97
2023-04-17T01:35:44.840Z,10.97
2023-04-17T01:38:14.016Z,10.97
2023-04-17T01:40:44.255Z,10.97
2023-04-17T01:43:15.202Z,10.97
2023-04-17T01:45:44.073Z,10.97
2023-04-17T01:48:15.558Z,10.97
2023-04-17T01:50:45.514Z,10.96
2023-04-17T01:53:14.328Z,10.96
2023-04-17T01:55:44.293Z,10.96
2023-04-17T01:58:14.555Z,10.95
2023-04-17T02:00:45.431Z,10.94
2023-04-17T02:03:15.671Z,10.93
2023-04-17T02:05:47.198Z,10.92
2023-04-17T02:08:16.577Z,10.91
2023-04-17T02:10:47.061Z,10.92
2023-04-17T02:13:17.393Z,10.91
2023-04-17T02:15:46.062Z,10.91
2023-04-17T02:18:15.133Z,10.92
2023-04-17T02:20:48.018Z,10.91
2023-04-17T02:23:18.049Z,10.90
2023-04-17T02:25:46.771Z,10.89
2023-04-17T02:28:18.753Z,10.90
2023-04-17T02:30:47.752Z,10.89
2023-04-17T02:33:17.598Z,10.89
2023-04-17T02:35:46.658Z,10.88
2023-04-17T02:38:17.740Z,10.86
2023-04-17T02:40:46.738Z,10.86
2023-04-17T02:43:15.828Z,10.85
2023-04-17T02:45:47.020Z,10.84
2023-04-17T02:48:16.495Z,10.85
2023-04-17T02:50:48.168Z,10.84
2023-04-17T02:53:20.332Z,10.82
2023-04-17T02:55:55.978Z,10.83
2023-04-17T02:58:27.330Z,10.81
2023-04-17T03:01:02.965Z,10.79
2023-04-17T03:03:39.248Z,10.78
2023-04-17T03:06:14.010Z,10.77
2023-04-17T03:08:46.305Z,10.76
2023-04-17T03:11:18.335Z,10.75
2023-04-17T03:13:52.363Z,10.74
2023-04-17T03:16:24.769Z,10.73
2023-04-17T03:18:55.344Z,10.72
2023-04-17T03:21:28.171Z,10.70
2023-04-17T03:24:04.621Z,10.70
2023-04-17T03:26:37.242Z,10.70
2023-04-17T03:29:12.412Z,10.69
2023-04-17T03:31:52.113Z,10.69
2023-04-17T03:34:22.568Z,10.68
2023-04-17T03:36:51.882Z,10.67
2023-04-17T03:39:24.807Z,10.67
2023-04-17T03:41:57.612Z,10.65
2023-04-17T03:44:29.928Z,10.63
2023-04-17T03:47:04.193Z,10.61
2023-04-17T03:49:33.306Z,10.58
2023-04-17T03:52:05.515Z,10.56
2023-04-17T03:54:37.338Z,10.52
2023-04-17T03:57:09.541Z,10.51
2023-04-17T03:59:42.782Z,10.48
2023-04-17T04:02:14.294Z,10.45
2023-04-17T04:04:45.224Z,10.44
2023-04-17T04:07:20.659Z,10.42
2023-04-17T04:09:52.312Z,10.40
2023-04-17T04:12:23.052Z,10.37
2023-04-17T04:14:51.815Z,10.36
2023-04-17T04:17:22.504Z,10.33
2023-04-17T04:19:51.294Z,10.30
2023-04-17T04:22:21.301Z,10.29
2023-04-17T04:24:56.605Z,10.27
2023-04-17T04:27:34.753Z,10.24
2023-04-17T04:30:11.073Z,10.23
2023-04-17T04:32:49.364Z,10.23
2023-04-17T04:35:19.440Z,10.21
2023-04-17T04:37:50.409Z,10.20
2023-04-17T04:40:26.789Z,10.18
2023-04-17T04:42:56.145Z,10.15
2023-04-17T04:45:31.193Z,10.14
2023-04-17T04:48:03.444Z,10.12
2023-04-17T04:50:32.516Z,10.11
2023-04-17T04:53:04.395Z,10.10
2023-04-17T04:55:44.574Z,10.09
2023-04-17T04:58:14.517Z,10.09
2023-04-17T05:00:44.820Z,10.09
2023-04-17T05:03:22.632Z,10.07
2023-04-17T05:05:55.944Z,10.07
2023-04-17T05:08:35.026Z,10.08
2023-04-17T05:11:11.624Z,10.07
2023-04-17T05:13:40.868Z,10.07
2023-04-17T05:16:16.504Z,10.07
2023-04-17T05:18:48.470Z,10.07
2023-04-17T05:21:21.393Z,10.08
2023-04-17T05:23:52.896Z,10.09
2023-04-17T05:26:22.437Z,10.09
2023-04-17T05:28:51.879Z,10.09
2023-04-17T05:31:25.434Z,10.09
2023-04-17T05:33:56.087Z,10.09
2023-04-17T05:36:25.312Z,10.10
2023-04-17T05:38:57.725Z,10.09
2023-04-17T05:41:28.117Z,10.11
2023-04-17T05:43:57.297Z,10.12
2023-04-17T05:46:26.421Z,10.13
2023-04-17T05:48:57.757Z,10.14
2023-04-17T05:51:26.592Z,10.16
2023-04-17T05:53:55.397Z,10.17
2023-04-17T05:56:24.210Z,10.18
2023-04-17T05:58:52.927Z,10.20
2023-04-17T06:01:22.933Z,10.20
2023-04-17T06:03:56.400Z,10.23
2023-04-17T06:06:28.607Z,10.24
2023-04-17T06:08:58.352Z,10.26
2023-04-17T06:11:27.234Z,10.28
2023-04-17T06:13:55.760Z,10.28
2023-04-17T06:16:24.358Z,10.30
2023-04-17T06:18:53.190Z,10.31
2023-04-17T06:21:23.799Z,10.34
2023-04-17T06:23:53.328Z,10.37
2023-04-17T06:26:24.739Z,10.39
2023-04-17T06:28:53.292Z,10.42
2023-04-17T06:31:22.185Z,10.45
2023-04-17T06:33:51.416Z,10.48
2023-04-17T06:36:24.824Z,10.52
2023-04-17T06:38:57.674Z,10.54
2023-04-17T06:41:26.568Z,10.56
2023-04-17T06:43:55.717Z,10.59
2023-04-17T06:46:24.467Z,10.60
2023-04-17T06:48:57.942Z,10.64
2023-04-17T06:51:29.283Z,10.67
2023-04-17T06:53:58.009Z,10.69
2023-04-17T06:56:26.718Z,10.69
2023-04-17T06:58:57.921Z,10.70
2023-04-17T07:01:27.964Z,10.71
2023-04-17T07:03:56.470Z,10.71
2023-04-17T07:06:29.122Z,10.71
2023-04-17T07:08:57.620Z,10.72
2023-04-17T07:11:26.378Z,10.75
2023-04-17T07:13:56.153Z,10.78
2023-04-17T07:16:24.751Z,10.81
2023-04-17T07:18:53.803Z,10.83
2023-04-17T07:21:27.756Z,10.83
2023-04-17T07:23:56.176Z,10.83
2023-04-17T07:26:26.519Z,10.87
2023-04-17T07:28:55.071Z,10.91
2023-04-17T07:31:25.106Z,10.94
2023-04-17T07:33:53.597Z,10.96
2023-04-17T07:36:22.211Z,10.97
2023-04-17T07:38:52.295Z,10.98
2023-04-17T07:41:21.150Z,10.98
2023-04-17T07:43:49.803Z,10.97
2023-04-17T07:46:19.362Z,10.95
2023-04-17T07:48:47.973Z,10.95
2023-04-17T07:51:16.820Z,10.95
2023-04-17T07:53:45.387Z,10.95
2023-04-17T07:56:15.287Z,10.98
2023-04-17T07:58:45.012Z,11.00
2023-04-17T08:01:13.737Z,11.06
2023-04-17T08:03:45.142Z,11.11
2023-04-17T08:06:14.168Z,11.16
2023-04-17T08:08:47.397Z,11.18
2023-04-17T08:11:17.261Z,11.18
2023-04-17T08:13:45.895Z,11.19
2023-04-17T08:16:14.477Z,11.21
2023-04-17T08:18:43.036Z,11.25
2023-04-17T08:21:11.592Z,11.27
2023-04-17T08:23:41.012Z,11.30
2023-04-17T08:26:09.648Z,11.34
2023-04-17T08:28:39.642Z,11.37
2023-04-17T08:31:10.395Z,11.40
2023-04-17T08:33:38.915Z,11.45
2023-04-17T08:36:09.591Z,11.50
2023-04-17T08:38:38.247Z,11.55
2023-04-17T08:41:12.848Z,11.59
2023-04-17T08:43:42.466Z,11.66
2023-04-17T08:46:13.481Z,11.72
2023-04-17T08:48:42.786Z,11.78
2023-04-17T08:51:11.295Z,11.85
2023-04-17T08:53:39.971Z,11.90
2023-04-17T08:56:09.348Z,11.92
2023-04-17T08:58:38.008Z,11.94
2023-04-17T09:01:12.013Z,11.97
2023-04-17T09:03:43.054Z,11.98
2023-04-17T09:06:12.953Z,12.01
2023-04-17T09:08:56.656Z,12.07
2023-04-17T09:11:25.710Z,12.12
2023-04-17T09:13:54.590Z,12.17
2023-04-17T09:16:25.672Z,12.24
2023-04-17T09:19:06.590Z,12.30
2023-04-17T09:21:35.036Z,12.34
2023-04-17T09:24:05.381Z,12.37
2023-04-17T09:26:34.042Z,12.43
2023-04-17T09:29:05.036Z,12.49
2023-04-17T09:31:36.191Z,12.54
2023-04-17T09:34:07.481Z,12.60
2023-04-17T09:36:38.240Z,12.66
2023-04-17T09:39:17.920Z,12.73
2023-04-17T09:41:46.344Z,12.79
2023-04-17T09:44:27.001Z,12.88
2023-04-17T09:46:57.588Z,12.97
2023-04-17T09:49:34.843Z,13.04
2023-04-17T09:52:04.172Z,13.09
2023-04-17T09:54:37.693Z,13.14
2023-04-17T09:57:08.817Z,13.20
2023-04-17T09:59:40.610Z,13.28
2023-04-17T10:02:11.567Z,13.36
2023-04-17T10:04:42.273Z,13.46
2023-04-17T10:07:14.547Z,13.54
2023-04-17T10:09:45.542Z,13.63
2023-04-17T10:12:19.230Z,13.70
2023-04-17T10:14:50.941Z,13.71
2023-04-17T10:17:28.889Z,13.72
2023-04-17T10:19:57.564Z,13.73
2023-04-17T10:22:34.071Z,13.72
2023-04-17T10:25:18.946Z,13.74
2023-04-17T10:27:49.020Z,13.74
2023-04-17T10:30:17.807Z,13.78
2023-04-17T10:32:48.727Z,13.80
2023-04-17T10:35:37.611Z,13.82
2023-04-17T10:38:07.966Z,13.81
2023-04-17T10:40:38.028Z,13.84
2023-04-17T10:43:13.487Z,13.86
2023-04-17T10:45:57.325Z,13.86
2023-04-17T10:48:33.394Z,13.84
2023-04-17T10:51:02.990Z,13.90
2023-04-17T10:53:45.243Z,14.00
2023-04-17T10:56:21.194Z,14.06
2023-04-17T10:58:59.255Z,14.13
2023-04-17T11:01:31.743Z,14.20
2023-04-17T11:04:02.777Z,14.23
2023-04-17T11:06:33.737Z,14.29
2023-04-17T11:09:02.399Z,14.38
2023-04-17T11:14:12.803Z,14.57
2023-04-17T11:16:44.203Z,14.63
2023-04-17T11:19:19.548Z,14.74
2023-04-17T11:21:50.382Z,14.84
2023-04-17T11:24:24.908Z,14.93
2023-04-17T11:26:54.764Z,15.00
2023-04-17T11:29:25.246Z,15.15
2023-04-17T11:31:55.446Z,15.27
2023-04-17T11:34:27.143Z,15.41
2023-04-17T11:36:57.479Z,15.47
2023-04-17T11:39:27.924Z,15.57
2023-04-17T11:41:57.240Z,15.67
2023-04-17T11:44:27.259Z,15.72
2023-04-17T11:46:59.531Z,15.74
2023-04-17T11:49:31.348Z,15.86
2023-04-17T11:52:02.129Z,16.01
2023-04-17T11:54:32.085Z,16.06
2023-04-17T11:57:02.217Z,16.13
2023-04-17T11:59:32.680Z,16.21
2023-04-17T12:02:03.768Z,16.26
2023-04-17T12:04:35.870Z,16.28
2023-04-17T12:07:05.851Z,16.31
2023-04-17T12:09:35.653Z,16.33
2023-04-17T12:12:06.974Z,16.37
2023-04-17T12:14:35.865Z,16.37
2023-04-17T12:17:04.561Z,16.34
2023-04-17T12:19:34.597Z,16.35
2023-04-17T12:22:03.408Z,16.34
2023-04-17T12:24:32.146Z,16.34
2023-04-17T12:27:01.864Z,16.41
2023-04-17T12:29:43.244Z,16.52
2023-04-17T12:32:13.338Z,16.67
2023-04-17T12:34:43.116Z,16.84
2023-04-17T12:37:11.593Z,17.01
2023-04-17T12:39:40.179Z,17.16
2023-04-17T12:42:08.811Z,17.29
2023-04-17T12:44:37.617Z,17.32
2023-04-17T12:47:06.393Z,17.37
2023-04-17T12:49:34.815Z,17.44
2023-04-17T12:52:04.818Z,17.52
2023-04-17T12:54:36.424Z,17.58
2023-04-17T12:57:04.928Z,17.62
2023-04-17T12:59:33.866Z,17.61
2023-04-17T13:02:02.948Z,17.58
2023-04-17T13:04:31.792Z,17.46
2023-04-17T13:07:00.739Z,17.34
2023-04-17T13:09:30.674Z,17.20
2023-04-17T13:11:59.194Z,17.16
2023-04-17T13:14:30.849Z,17.17
2023-04-17T13:16:59.531Z,17.25
2023-04-17T13:19:28.056Z,17.29
2023-04-17T13:21:56.546Z,17.28
2023-04-17T13:24:25.279Z,17.28
2023-04-17T13:26:58.317Z,17.28
2023-04-17T13:29:26.736Z,17.19
2023-04-17T13:31:55.201Z,17.13
2023-04-17T13:34:23.700Z,17.07
2023-04-17T13:36:54.961Z,17.09
2023-04-17T13:39:25.413Z,17.17
2023-04-17T13:41:58.324Z,17.23
2023-04-17T13:44:28.862Z,17.35
2023-04-17T13:46:57.684Z,17.39
2023-04-17T13:49:27.557Z,17.42
2023-04-17T13:51:56.293Z,17.56
2023-04-17T13:54:24.831Z,17.53
2023-04-17T13:56:54.638Z,17.53
2023-04-17T13:59:24.513Z,17.73
2023-04-17T14:01:53.450Z,17.96
2023-04-17T14:04:22.337Z,18.22
2023-04-17T14:06:51.526Z,18.46
2023-04-17T14:09:19.927Z,18.50
2023-04-17T14:11:48.461Z,18.51
2023-04-17T14:14:16.931Z,18.49
2023-04-17T14:16:50.892Z,18.51
2023-04-17T14:19:20.124Z,18.41
2023-04-17T14:21:49.390Z,18.35
2023-04-17T14:24:18.757Z,18.25
2023-04-17T14:26:47.474Z,18.17
2023-04-17T14:29:16.127Z,18.08
2023-04-17T14:31:46.220Z,17.95
2023-04-17T14:34:14.927Z,17.83
2023-04-17T14:36:43.722Z,17.80
2023-04-17T14:39:12.944Z,17.89
2023-04-17T14:41:41.655Z,17.99
2023-04-17T14:44:11.534Z,18.11
2023-04-17T14:46:40.298Z,18.31
2023-04-17T14:49:10.163Z,18.50
2023-04-17T14:51:39.966Z,18.63
2023-04-17T14:54:08.858Z,18.65
2023-04-17T14:56:37.447Z,18.66
2023-04-17T14:59:07.291Z,18.63
2023-04-17T15:01:35.893Z,18.62
2023-04-17T15:04:04.667Z,18.65
2023-04-17T15:06:35.455Z,18.61
2023-04-17T15:09:04.204Z,18.54
2023-04-17T15:11:32.684Z,18.53
2023-04-17T15:14:01.225Z,18.59
2023-04-17T15:16:30.042Z,18.69
2023-04-17T15:18:58.691Z,18.83
2023-04-17T15:21:27.316Z,18.97
2023-04-17T15:23:57.236Z,19.06
2023-04-17T15:26:27.274Z,19.10
2023-04-17T15:28:55.746Z,19.04
2023-04-17T15:31:24.393Z,19.02
2023-04-17T15:33:53.146Z,19.10
2023-04-17T15:36:21.495Z,19.23
2023-04-17T15:38:49.969Z,19.24
2023-04-17T15:41:19.848Z,19.17
2023-04-17T15:43:48.312Z,19.07
2023-04-17T15:46:17.034Z,18.90
2023-04-17T15:48:52.012Z,18.71
2023-04-17T15:51:29.742Z,18.50
2023-04-17T15:53:58.552Z,18.44
2023-04-17T15:56:28.404Z,18.39
2023-04-17T15:58:57.260Z,18.36
2023-04-17T16:01:26.533Z,18.37
2023-04-17T16:03:55.169Z,18.49
2023-04-17T16:06:23.780Z,18.68
2023-04-17T16:08:52.422Z,18.80
2023-04-17T16:11:21.024Z,18.87
2023-04-17T16:13:51.145Z,18.98
2023-04-17T16:16:19.781Z,19.10
2023-04-17T16:18:48.474Z,19.25
2023-04-17T16:21:17.300Z,19.39
2023-04-17T16:23:48.731Z,19.48
2023-04-17T16:26:17.315Z,19.57
2023-04-17T16:28:46.428Z,19.60
2023-04-17T16:31:17.358Z,19.47
2023-04-17T16:33:46.046Z,19.16
2023-04-17T16:36:14.659Z,18.90
2023-04-17T16:38:43.360Z,18.69
2023-04-17T16:41:12.234Z,18.67
2023-04-17T16:43:41.919Z,18.68
2023-04-17T16:46:18.728Z,18.72
2023-04-17T16:48:53.190Z,18.80
2023-04-17T16:51:23.709Z,18.90
2023-04-17T16:53:52.227Z,18.96
2023-04-17T16:56:21.110Z,18.99
2023-04-17T16:58:49.565Z,18.97
2023-04-17T17:01:18.371Z,18.91
2023-04-17T17:03:47.087Z,18.80
2023-04-17T17:06:18.174Z,18.64
2023-04-17T17:08:46.945Z,18.51
2023-04-17T17:11:16.100Z,18.36
2023-04-17T17:13:47.411Z,18.16
2023-04-17T17:16:16.930Z,17.99
2023-04-17T17:18:46.077Z,17.81
2023-04-17T17:21:16.125Z,17.68
2023-04-17T17:23:44.944Z,17.55
2023-04-17T17:26:13.417Z,17.41
2023-04-17T17:28:41.926Z,17.30
2023-04-17T17:31:10.681Z,17.17
2023-04-17T17:33:39.277Z,17.07
2023-04-17T17:36:08.985Z,16.96
2023-04-17T17:38:39.029Z,16.88
2023-04-17T17:41:07.572Z,16.80
2023-04-17T17:43:36.202Z,16.70
2023-04-17T17:46:04.713Z,16.56
2023-04-17T17:48:35.597Z,16.48
2023-04-17T17:51:04.217Z,16.36
2023-04-17T17:53:32.783Z,16.27
2023-04-17T17:56:02.842Z,16.18
2023-04-17T17:58:31.346Z,16.11
2023-04-17T18:00:59.974Z,16.03
2023-04-17T18:03:28.631Z,15.95
2023-04-17T18:05:57.429Z,15.87
2023-04-17T18:08:26.037Z,15.81
2023-04-17T18:10:54.588Z,15.74
2023-04-17T18:13:24.638Z,15.67
2023-04-17T18:15:53.429Z,15.60
2023-04-17T18:18:21.944Z,15.56
2023-04-17T18:20:50.831Z,15.47
2023-04-17T18:23:19.494Z,15.40
2023-04-17T18:25:57.750Z,15.33
2023-04-17T18:28:28.269Z,15.27
2023-04-17T18:30:57.136Z,15.20
2023-04-17T18:33:25.748Z,15.14
2023-04-17T18:35:54.338Z,15.05
2023-04-17T18:38:22.899Z,14.99
2023-04-17T18:40:55.516Z,14.93
2023-04-17T18:43:24.234Z,14.86
2023-04-17T18:45:54.591Z,14.81
2023-04-17T18:48:24.255Z,14.72
2023-04-17T18:50:52.865Z,14.62
2023-04-17T18:53:21.539Z,14.56
2023-04-17T18:55:50.214Z,14.48
2023-04-17T18:58:18.980Z,14.39
2023-04-17T19:00:47.812Z,14.31
2023-04-17T19:03:18.024Z,14.21
2023-04-17T19:05:46.804Z,14.13
2023-04-17T19:08:15.879Z,14.05
2023-04-17T19:10:44.419Z,13.95
2023-04-17T19:13:12.987Z,13.86
2023-04-17T19:15:41.690Z,13.78
2023-04-17T19:18:10.832Z,13.68
2023-04-17T19:20:42.425Z,13.59
2023-04-17T19:23:11.219Z,13.51
2023-04-17T19:25:41.679Z,13.44
2023-04-17T19:28:11.431Z,13.35
2023-04-17T19:30:40.229Z,13.28
2023-04-17T19:33:08.907Z,13.22
2023-04-17T19:35:37.622Z,13.13
2023-04-17T19:38:07.636Z,13.05
2023-04-17T19:40:36.131Z,12.97
2023-04-17T19:43:04.710Z,12.88
2023-04-17T19:45:34.816Z,12.80
2023-04-17T19:48:03.637Z,12.71
2023-04-17T19:50:32.388Z,12.66
2023-04-17T19:53:01.072Z,12.62
2023-04-17T19:55:31.199Z,12.57
2023-04-17T19:57:59.937Z,12.52
2023-04-17T20:00:29.053Z,12.42
2023-04-17T20:02:57.716Z,12.33
2023-04-17T20:05:27.450Z,12.24
2023-04-17T20:07:56.061Z,12.14
2023-04-17T20:10:24.876Z,12.09
2023-04-17T20:12:54.813Z,12.03
2023-04-17T20:15:23.399Z,11.97
2023-04-17T20:17:52.145Z,11.90
2023-04-17T20:20:20.825Z,11.82
2023-04-17T20:22:49.875Z,11.74
2023-04-17T20:25:18.593Z,11.67
2023-04-17T20:27:47.776Z,11.62
2023-04-17T20:30:18.007Z,11.58
2023-04-17T20:32:48.101Z,11.54
2023-04-17T20:35:17.728Z,11.47
2023-04-17T20:37:46.486Z,11.42
2023-04-17T20:40:15.373Z,11.39
2023-04-17T20:42:45.209Z,11.37
2023-04-17T20:45:13.983Z,11.33
2023-04-17T20:50:16.996Z,11.27
2023-04-17T20:52:45.691Z,11.20
2023-04-17T20:55:14.313Z,11.13
2023-04-17T20:57:42.872Z,11.07
2023-04-17T21:00:12.391Z,11.01
2023-04-17T21:02:41.336Z,10.94
2023-04-17T21:05:11.492Z,10.89
2023-04-17T21:07:40.041Z,10.85
2023-04-17T21:10:09.544Z,10.83
2023-04-17T21:12:38.238Z,10.80
2023-04-17T21:15:07.716Z,10.81
2023-04-17T21:17:36.233Z,10.79
2023-04-17T21:20:05.532Z,10.79
2023-04-17T21:22:36.831Z,10.79
2023-04-17T21:25:06.240Z,10.76
2023-04-17T21:27:34.750Z,10.75
2023-04-17T21:30:03.962Z,10.73
2023-04-17T21:32:32.528Z,10.73
2023-04-17T21:35:01.122Z,10.73
2023-04-17T21:37:29.596Z,10.73
2023-04-17T21:39:59.625Z,10.73
2023-04-17T21:42:28.220Z,10.71
2023-04-17T21:44:56.687Z,10.70
2023-04-17T21:47:26.829Z,10.68
2023-04-17T21:49:55.477Z,10.67
2023-04-17T21:52:24.000Z,10.64
2023-04-17T21:54:52.498Z,10.63
2023-04-17T21:57:22.425Z,10.63
2023-04-17T21:59:51.033Z,10.62
2023-04-17T22:02:19.695Z,10.61
2023-04-17T22:04:48.392Z,10.61
2023-04-17T22:07:18.456Z,10.60
2023-04-17T22:09:46.965Z,10.57
2023-04-17T22:12:17.728Z,10.57
2023-04-17T22:14:48.033Z,10.55
2023-04-17T22:17:17.196Z,10.55
2023-04-17T22:19:45.739Z,10.51
2023-04-17T22:22:14.235Z,10.51
2023-04-17T22:24:43.267Z,10.51
2023-04-17T22:27:14.116Z,10.48
2023-04-17T22:29:42.636Z,10.47
2023-04-17T22:32:12.484Z,10.47
2023-04-17T22:34:42.424Z,10.45
2023-04-17T22:37:11.187Z,10.43
2023-04-17T22:39:39.680Z,10.40
2023-04-17T22:42:08.250Z,10.39
2023-04-17T22:44:36.821Z,10.37
2023-04-17T22:47:05.511Z,10.34
2023-04-17T22:49:37.994Z,10.32
2023-04-17T22:52:06.846Z,10.31
2023-04-17T22:54:35.756Z,10.28
2023-04-17T22:57:04.345Z,10.26
2023-04-17T22:59:32.921Z,10.24
2023-04-17T23:02:01.545Z,10.22
2023-04-17T23:04:30.373Z,10.20
2023-04-17T23:07:00.598Z,10.18
2023-04-17T23:09:29.224Z,10.17
2023-04-17T23:11:57.759Z,10.13
2023-04-17T23:14:28.493Z,10.10
2023-04-17T23:16:57.021Z,10.10
2023-04-17T23:19:25.695Z,10.07
2023-04-17T23:21:54.265Z,10.06
2023-04-17T23:24:24.199Z,10.05
2023-04-17T23:26:54.877Z,10.01
2023-04-17T23:29:23.421Z,10.00
2023-04-17T23:31:52.028Z,9.98
2023-04-17T23:34:20.735Z,9.96
2023-04-17T23:36:49.323Z,9.92
2023-04-17T23:39:17.874Z,9.91
2023-04-17T23:41:47.904Z,9.88
2023-04-17T23:44:16.396Z,9.85
2023-04-17T23:46:44.889Z,9.81
2023-04-17T23:49:13.482Z,9.77
2023-04-17T23:51:42.064Z,9.73
2023-04-17T23:54:11.415Z,9.71
2023-04-17T23:56:43.465Z,9.69
2023-04-17T23:59:14.890Z,9.66
